createdAt,value
2022-10-16T00:01:26.706Z,96781.41
2022-10-16T00:03:53.335Z,96696.50
2022-10-16T00:06:20.643Z,96744.03
2022-10-16T00:08:47.693Z,96488.03
2022-10-16T00:11:24.140Z,96820.94
2022-10-16T00:13:51.772Z,96737.50
2022-10-16T00:16:18.566Z,96708.72
2022-10-16T00:18:45.236Z,96520.41
2022-10-16T00:21:19.721Z,96818.97
2022-10-16T00:23:46.626Z,96702.34
2022-10-16T00:26:14.909Z,96802.50
2022-10-16T00:28:41.568Z,96775.38
2022-10-16T00:31:10.184Z,96642.88
2022-10-16T00:33:38.484Z,96791.47
2022-10-16T00:36:06.029Z,96500.72
2022-10-16T00:38:32.726Z,96798.94
2022-10-16T00:40:59.329Z,96731.94
2022-10-16T00:43:47.286Z,96819.28
2022-10-16T00:46:38.691Z,96793.25
2022-10-16T00:49:16.173Z,96737.47
2022-10-16T00:51:46.077Z,96809.03
2022-10-16T00:54:18.820Z,96694.72
2022-10-16T00:56:45.716Z,96670.66
2022-10-16T00:59:17.573Z,96542.31
2022-10-16T01:01:44.160Z,96725.31
2022-10-16T01:04:10.884Z,96577.41
2022-10-16T01:06:54.693Z,96610.56
2022-10-16T01:10:06.249Z,96844.44
2022-10-16T01:12:53.284Z,96752.97
2022-10-16T01:15:27.935Z,96725.03
2022-10-16T01:18:11.005Z,96832.88
2022-10-16T01:20:46.383Z,96518.56
2022-10-16T01:23:25.037Z,96830.13
2022-10-16T01:26:15.354Z,96832.91
2022-10-16T01:28:47.088Z,96813.22
2022-10-16T01:31:13.736Z,96518.75
2022-10-16T01:33:43.790Z,96763.72
2022-10-16T01:36:16.034Z,96771.22
2022-10-16T01:38:42.622Z,96837.94
2022-10-16T01:41:12.456Z,96753.66
2022-10-16T01:43:45.032Z,96769.41
2022-10-16T01:46:11.716Z,96578.56
2022-10-16T01:48:38.365Z,96527.19
2022-10-16T01:51:07.853Z,96671.69
2022-10-16T01:53:34.471Z,96771.53
2022-10-16T01:56:01.052Z,96535.31
2022-10-16T01:58:27.923Z,96798.06
2022-10-16T02:00:54.743Z,96807.38
2022-10-16T02:03:21.902Z,96658.84
2022-10-16T02:05:48.556Z,96841.50
2022-10-16T02:08:15.197Z,96500.38
2022-10-16T02:10:41.829Z,96817.78
2022-10-16T02:13:15.367Z,96819.59
2022-10-16T02:15:42.104Z,96843.97
2022-10-16T02:18:08.931Z,96790.09
2022-10-16T02:20:39.593Z,96830.81
2022-10-16T02:23:06.311Z,96736.72
2022-10-16T02:25:35.938Z,96588.91
2022-10-16T02:28:09.715Z,96780.81
2022-10-16T02:30:52.235Z,96858.00
2022-10-16T02:33:19.009Z,96750.41
2022-10-16T02:35:46.183Z,96803.44
2022-10-16T02:38:13.027Z,96729.09
2022-10-16T02:40:39.666Z,96766.03
2022-10-16T02:43:06.529Z,96727.81
2022-10-16T02:45:33.141Z,96634.75
2022-10-16T02:47:59.752Z,96799.06
2022-10-16T02:50:26.304Z,96694.94
2022-10-16T02:52:52.904Z,96628.38
2022-10-16T02:55:19.645Z,96744.72
2022-10-16T02:57:46.462Z,96755.44
2022-10-16T03:00:14.605Z,96805.72
2022-10-16T03:02:41.259Z,96775.16
2022-10-16T03:05:08.330Z,96779.69
2022-10-16T03:07:35.006Z,96829.16
2022-10-16T03:10:01.640Z,96848.06
2022-10-16T03:12:29.090Z,96806.22
2022-10-16T03:14:57.570Z,96856.88
2022-10-16T03:17:24.922Z,96858.63
2022-10-16T03:19:51.730Z,96866.97
2022-10-16T03:22:18.337Z,96821.03
2022-10-16T03:24:44.917Z,96772.53
2022-10-16T03:27:11.471Z,96893.97
2022-10-16T03:29:38.048Z,96766.19
2022-10-16T03:32:04.797Z,96794.16
2022-10-16T03:34:31.377Z,96743.38
2022-10-16T03:36:57.976Z,96784.56
2022-10-16T03:39:24.874Z,96801.16
2022-10-16T03:41:51.610Z,96781.13
2022-10-16T03:44:18.175Z,96589.44
2022-10-16T03:46:44.764Z,96700.94
2022-10-16T03:49:11.337Z,96606.50
2022-10-16T03:51:38.441Z,96618.84
2022-10-16T03:54:05.011Z,96859.88
2022-10-16T03:56:31.599Z,96757.00
2022-10-16T03:58:58.333Z,96700.78
2022-10-16T04:01:26.401Z,96833.03
2022-10-16T04:03:52.982Z,96891.44
2022-10-16T04:06:19.725Z,96854.84
2022-10-16T04:08:46.481Z,96665.50
2022-10-16T04:11:13.172Z,96881.84
2022-10-16T04:13:39.727Z,96766.44
2022-10-16T04:16:06.642Z,96894.72
2022-10-16T04:18:33.390Z,96907.88
2022-10-16T04:21:04.776Z,96841.84
2022-10-16T04:23:31.575Z,96690.53
2022-10-16T04:25:58.166Z,96838.09
2022-10-16T04:28:24.762Z,96712.66
2022-10-16T04:30:51.710Z,96905.13
2022-10-16T04:33:19.382Z,96843.31
2022-10-16T04:35:45.984Z,96803.59
2022-10-16T04:38:12.590Z,96899.59
2022-10-16T04:40:39.393Z,96825.56
2022-10-16T04:43:06.315Z,96803.94
2022-10-16T04:45:32.951Z,96841.03
2022-10-16T04:47:59.958Z,96778.38
2022-10-16T04:50:26.703Z,96894.09
2022-10-16T04:52:53.324Z,96849.34
2022-10-16T04:55:20.040Z,96781.47
2022-10-16T04:57:46.646Z,96931.88
2022-10-16T05:00:13.756Z,96919.50
2022-10-16T05:02:40.528Z,96792.19
2022-10-16T05:05:07.967Z,96880.56
2022-10-16T05:07:34.590Z,96747.78
2022-10-16T05:10:01.330Z,96753.00
2022-10-16T05:12:27.959Z,96746.16
2022-10-16T05:14:59.361Z,96848.66
2022-10-16T05:17:27.004Z,96705.66
2022-10-16T05:19:53.860Z,96832.75
2022-10-16T05:22:20.620Z,96802.13
2022-10-16T05:24:47.169Z,96797.91
2022-10-16T05:27:19.770Z,96797.59
2022-10-16T05:29:49.557Z,96876.38
2022-10-16T05:32:16.853Z,96923.94
2022-10-16T05:34:43.675Z,96804.56
2022-10-16T05:37:10.590Z,96587.78
2022-10-16T05:39:38.111Z,96708.75
2022-10-16T05:42:05.471Z,96835.84
2022-10-16T05:44:32.061Z,96855.34
2022-10-16T05:46:58.792Z,96839.91
2022-10-16T05:49:25.470Z,96855.84
2022-10-16T05:51:52.218Z,96797.06
2022-10-16T05:54:18.805Z,96819.22
2022-10-16T05:56:45.454Z,96845.75
2022-10-16T05:59:12.026Z,96877.00
2022-10-16T06:01:38.578Z,96901.38
2022-10-16T06:04:05.394Z,96711.22
2022-10-16T06:06:32.270Z,96846.38
2022-10-16T06:08:59.116Z,96636.91
2022-10-16T06:11:27.614Z,96751.03
2022-10-16T06:13:55.705Z,96880.84
2022-10-16T06:16:22.349Z,96875.00
2022-10-16T06:18:49.298Z,96864.00
2022-10-16T06:21:18.713Z,96822.69
2022-10-16T06:23:47.136Z,96642.53
2022-10-16T06:26:15.277Z,96822.56
2022-10-16T06:28:42.065Z,96959.41
2022-10-16T06:31:09.573Z,96911.38
2022-10-16T06:33:36.843Z,96943.09
2022-10-16T06:36:11.809Z,96843.00
2022-10-16T06:38:38.368Z,96964.69
2022-10-16T06:41:05.695Z,96943.59
2022-10-16T06:43:38.275Z,96973.19
2022-10-16T06:46:05.868Z,96938.88
2022-10-16T06:48:32.451Z,96943.16
2022-10-16T06:51:15.981Z,96922.47
2022-10-16T06:54:05.396Z,96799.28
2022-10-16T06:56:32.545Z,96964.72
2022-10-16T06:58:59.542Z,96947.03
2022-10-16T07:01:26.209Z,96958.13
2022-10-16T07:03:52.904Z,96931.88
2022-10-16T07:06:21.140Z,96939.22
2022-10-16T07:08:48.198Z,96966.44
2022-10-16T07:11:16.729Z,96923.50
2022-10-16T07:13:52.979Z,96994.78
2022-10-16T07:16:23.513Z,96949.66
2022-10-16T07:18:50.503Z,96972.69
2022-10-16T07:21:21.539Z,96902.41
2022-10-16T07:23:52.236Z,97001.75
2022-10-16T07:26:18.793Z,96967.03
2022-10-16T07:28:45.442Z,96919.25
2022-10-16T07:31:16.921Z,97013.41
2022-10-16T07:33:45.413Z,96984.69
2022-10-16T07:36:16.599Z,97005.00
2022-10-16T07:38:43.749Z,96920.50
2022-10-16T07:41:15.432Z,97040.78
2022-10-16T07:43:46.086Z,96881.34
2022-10-16T07:46:13.068Z,97020.25
2022-10-16T07:48:39.687Z,97013.28
2022-10-16T07:51:07.185Z,96977.63
2022-10-16T07:53:33.926Z,96976.75
2022-10-16T07:56:01.330Z,97049.97
2022-10-16T07:58:31.243Z,97001.47
2022-10-16T08:00:58.141Z,96992.81
2022-10-16T08:03:27.812Z,97019.16
2022-10-16T08:05:54.459Z,97005.47
2022-10-16T08:08:21.058Z,97049.47
2022-10-16T08:10:47.680Z,96787.44
2022-10-16T08:13:16.523Z,96994.50
2022-10-16T08:15:46.351Z,97035.09
2022-10-16T08:18:13.785Z,97013.66
2022-10-16T08:20:42.355Z,97022.91
2022-10-16T08:23:10.165Z,97049.97
2022-10-16T08:25:37.425Z,97034.44
2022-10-16T08:28:07.868Z,97023.03
2022-10-16T08:30:34.538Z,96980.16
2022-10-16T08:33:01.235Z,97005.56
2022-10-16T08:35:27.886Z,96924.72
2022-10-16T08:37:54.507Z,97041.50
2022-10-16T08:40:34.252Z,96992.03
2022-10-16T08:43:09.865Z,97074.34
2022-10-16T08:45:43.278Z,97078.22
2022-10-16T08:48:22.477Z,97005.41
2022-10-16T08:50:49.059Z,97068.66
2022-10-16T08:53:49.581Z,96881.72
2022-10-16T08:56:16.162Z,97026.59
2022-10-16T08:58:51.279Z,97056.97
2022-10-16T09:01:20.921Z,97023.59
2022-10-16T09:04:02.638Z,97097.22
2022-10-16T09:07:03.654Z,97040.09
2022-10-16T09:09:50.517Z,97091.19
2022-10-16T09:12:38.453Z,97093.28
2022-10-16T09:15:12.521Z,97102.09
2022-10-16T09:18:00.259Z,96976.22
2022-10-16T09:20:31.136Z,97100.94
2022-10-16T09:23:09.853Z,97098.00
2022-10-16T09:25:36.409Z,97032.19
2022-10-16T09:28:02.951Z,96870.09
2022-10-16T09:30:30.455Z,96959.84
2022-10-16T09:32:58.533Z,97086.78
2022-10-16T09:35:42.610Z,97084.16
2022-10-16T09:38:09.574Z,97074.19
2022-10-16T09:40:40.038Z,96976.25
2022-10-16T09:43:30.581Z,97129.13
2022-10-16T09:45:59.194Z,97023.94
2022-10-16T09:48:33.024Z,97098.41
2022-10-16T09:51:01.078Z,97095.59
2022-10-16T09:53:44.590Z,97007.53
2022-10-16T09:56:14.869Z,97043.78
2022-10-16T09:58:45.732Z,97094.06
2022-10-16T10:01:14.160Z,97120.94
2022-10-16T10:03:41.940Z,97060.25
2022-10-16T10:06:19.533Z,97117.06
2022-10-16T10:08:56.258Z,97099.13
2022-10-16T10:11:45.587Z,97153.81
2022-10-16T10:14:37.614Z,97167.75
2022-10-16T10:17:07.045Z,97160.50
2022-10-16T10:19:53.423Z,97090.78
2022-10-16T10:22:33.562Z,97046.72
2022-10-16T10:25:09.386Z,97153.88
2022-10-16T10:27:51.415Z,97115.13
2022-10-16T10:30:25.437Z,97128.16
2022-10-16T10:33:26.077Z,97076.25
2022-10-16T10:36:00.713Z,97133.34
2022-10-16T10:38:47.731Z,97066.41
2022-10-16T10:41:31.365Z,97092.28
2022-10-16T10:44:27.675Z,97131.38
2022-10-16T10:46:58.782Z,97029.22
2022-10-16T10:49:53.912Z,97096.25
2022-10-16T10:52:32.753Z,97125.78
2022-10-16T10:55:08.105Z,97134.09
2022-10-16T10:57:44.404Z,97141.88
2022-10-16T11:00:29.950Z,97133.78
2022-10-16T11:03:09.650Z,97122.88
2022-10-16T11:05:51.370Z,97086.16
2022-10-16T11:08:23.649Z,97058.53
2022-10-16T11:10:59.867Z,97086.81
2022-10-16T11:13:43.481Z,97121.28
2022-10-16T11:16:38.683Z,97117.25
2022-10-16T11:19:14.872Z,97108.75
2022-10-16T11:21:45.914Z,97140.38
2022-10-16T11:24:35.699Z,97149.91
2022-10-16T11:27:04.044Z,97027.28
2022-10-16T11:29:30.878Z,96816.13
2022-10-16T11:32:13.410Z,97007.81
2022-10-16T11:34:46.113Z,97133.09
2022-10-16T11:37:15.568Z,96958.56
2022-10-16T11:39:43.364Z,97045.09
2022-10-16T11:42:14.393Z,97130.22
2022-10-16T11:44:49.932Z,97139.13
2022-10-16T11:50:40.989Z,97134.09
2022-10-16T11:53:25.784Z,97135.28
2022-10-16T11:55:52.984Z,97049.56
2022-10-16T11:58:36.133Z,96984.72
2022-10-16T12:01:21.710Z,97146.06
2022-10-16T12:04:15.808Z,97139.41
2022-10-16T12:06:44.283Z,96863.75
2022-10-16T12:09:40.405Z,97150.91
2022-10-16T12:12:37.482Z,97048.72
2022-10-16T12:15:22.227Z,97148.88
2022-10-16T12:17:56.908Z,97085.22
2022-10-16T12:20:34.157Z,97128.00
2022-10-16T12:23:05.345Z,96836.75
2022-10-16T12:25:36.709Z,96987.50
2022-10-16T12:28:07.198Z,97147.66
2022-10-16T12:30:36.605Z,97071.66
2022-10-16T12:33:07.717Z,97067.59
2022-10-16T12:35:45.429Z,97074.47
2022-10-16T12:38:25.593Z,97069.41
2022-10-16T12:41:06.337Z,97091.28
2022-10-16T12:43:32.856Z,97144.84
2022-10-16T12:46:22.256Z,97089.06
2022-10-16T12:49:05.502Z,96982.03
2022-10-16T12:51:32.825Z,97152.53
2022-10-16T12:54:20.920Z,97144.00
2022-10-16T12:56:50.393Z,97175.22
2022-10-16T12:59:22.667Z,97075.00
2022-10-16T13:02:14.072Z,97175.19
2022-10-16T13:05:21.082Z,97080.00
2022-10-16T13:08:28.958Z,97173.28
2022-10-16T13:11:01.430Z,97182.59
2022-10-16T13:13:35.765Z,97172.84
2022-10-16T13:16:36.427Z,97181.09
2022-10-16T13:19:28.147Z,97174.13
2022-10-16T13:22:03.706Z,97173.72
2022-10-16T13:24:55.106Z,97167.41
2022-10-16T13:27:46.767Z,97048.44
2022-10-16T13:30:30.807Z,97067.19
2022-10-16T13:33:08.479Z,97107.72
2022-10-16T13:35:35.789Z,97093.06
2022-10-16T13:38:23.319Z,97158.22
2022-10-16T13:41:13.139Z,97162.66
2022-10-16T13:43:50.975Z,97115.13
2022-10-16T13:46:21.960Z,97143.69
2022-10-16T13:48:59.143Z,97101.84
2022-10-16T13:51:25.876Z,97117.13
2022-10-16T13:53:52.619Z,97098.16
2022-10-16T13:56:21.266Z,97103.44
2022-10-16T13:58:48.390Z,97043.72
2022-10-16T14:01:20.218Z,97088.75
2022-10-16T14:03:47.444Z,97193.31
2022-10-16T14:06:17.122Z,96951.59
2022-10-16T14:08:45.272Z,96915.00
2022-10-16T14:11:11.877Z,97217.59
2022-10-16T14:13:44.411Z,97104.22
2022-10-16T14:16:18.245Z,97098.31
2022-10-16T14:18:47.086Z,97047.06
2022-10-16T14:21:14.609Z,96968.28
2022-10-16T14:23:41.625Z,97176.56
2022-10-16T14:26:11.210Z,97210.34
2022-10-16T14:28:38.180Z,97154.19
2022-10-16T14:31:24.920Z,97216.09
2022-10-16T14:33:51.591Z,97042.47
2022-10-16T14:36:19.598Z,97013.16
2022-10-16T14:39:03.078Z,97211.16
2022-10-16T14:41:31.057Z,97170.84
2022-10-16T14:43:59.612Z,97176.09
2022-10-16T14:46:39.673Z,97164.94
2022-10-16T14:49:12.430Z,97218.72
2022-10-16T14:51:42.025Z,97155.50
2022-10-16T14:54:12.762Z,97200.34
2022-10-16T14:56:48.890Z,97124.50
2022-10-16T14:59:37.494Z,97225.88
2022-10-16T15:02:19.216Z,97121.91
2022-10-16T15:04:45.841Z,97211.66
2022-10-16T15:07:12.387Z,97111.41
2022-10-16T15:09:39.141Z,97107.34
2022-10-16T15:12:05.926Z,96966.34
2022-10-16T15:14:32.505Z,97166.25
2022-10-16T15:16:59.086Z,97194.75
2022-10-16T15:19:25.636Z,97176.66
2022-10-16T15:21:53.325Z,96970.88
2022-10-16T15:24:21.548Z,97111.91
2022-10-16T15:26:48.341Z,97163.72
2022-10-16T15:29:15.461Z,97179.97
2022-10-16T15:31:45.026Z,96951.88
2022-10-16T15:34:11.637Z,96964.53
2022-10-16T15:36:38.953Z,96981.03
2022-10-16T15:39:15.845Z,97018.97
2022-10-16T15:41:42.771Z,97150.69
2022-10-16T15:44:09.487Z,96957.91
2022-10-16T15:46:37.174Z,97121.41
2022-10-16T15:49:04.004Z,97121.47
2022-10-16T15:51:30.589Z,97154.44
2022-10-16T15:53:58.041Z,97060.91
2022-10-16T15:56:26.396Z,96881.06
2022-10-16T15:58:53.802Z,97202.91
2022-10-16T16:01:20.534Z,97074.81
2022-10-16T16:03:47.141Z,97152.66
2022-10-16T16:06:14.094Z,97164.94
2022-10-16T16:08:40.843Z,97204.91
2022-10-16T16:11:12.610Z,97131.84
2022-10-16T16:13:39.434Z,97180.19
2022-10-16T16:16:08.055Z,97000.50
2022-10-16T16:18:34.645Z,97276.13
2022-10-16T16:21:01.222Z,97229.34
2022-10-16T16:23:27.866Z,97119.44
2022-10-16T16:26:14.302Z,97303.88
2022-10-16T16:28:41.534Z,97155.16
2022-10-16T16:31:08.308Z,97154.22
2022-10-16T16:33:35.171Z,97066.16
2022-10-16T16:36:02.885Z,97063.25
2022-10-16T16:38:29.635Z,97108.75
2022-10-16T16:40:56.580Z,97267.56
2022-10-16T16:43:27.016Z,97194.19
2022-10-16T16:45:55.007Z,97024.00
2022-10-16T16:48:32.718Z,96944.00
2022-10-16T16:51:06.655Z,97228.81
2022-10-16T16:53:36.868Z,97180.69
2022-10-16T16:56:04.963Z,97197.66
2022-10-16T16:58:32.101Z,97243.81
2022-10-16T17:01:19.362Z,97239.25
2022-10-16T17:03:46.896Z,97107.78
2022-10-16T17:06:14.061Z,97203.38
2022-10-16T17:08:40.915Z,97184.78
2022-10-16T17:11:07.673Z,97286.16
2022-10-16T17:13:38.663Z,97239.97
2022-10-16T17:16:06.325Z,97323.38
2022-10-16T17:18:33.322Z,97120.53
2022-10-16T17:21:04.378Z,97364.03
2022-10-16T17:23:31.053Z,97285.81
2022-10-16T17:25:58.080Z,97287.81
2022-10-16T17:28:25.272Z,97085.91
2022-10-16T17:30:52.005Z,97252.38
2022-10-16T17:33:18.892Z,97008.69
2022-10-16T17:35:46.503Z,97203.56
2022-10-16T17:38:13.984Z,97116.22
2022-10-16T17:40:40.918Z,97131.53
2022-10-16T17:43:08.403Z,97248.06
2022-10-16T17:45:39.140Z,97385.31
2022-10-16T17:48:06.121Z,97216.06
2022-10-16T17:50:32.826Z,97090.66
2022-10-16T17:52:59.403Z,97120.25
2022-10-16T17:55:27.292Z,97393.47
2022-10-16T17:57:54.111Z,97358.00
2022-10-16T18:00:20.734Z,97288.56
2022-10-16T18:02:49.853Z,97135.94
2022-10-16T18:05:29.871Z,97295.78
2022-10-16T18:07:56.502Z,97217.06
2022-10-16T18:10:23.130Z,97086.53
2022-10-16T18:12:49.992Z,97216.41
2022-10-16T18:15:16.727Z,97110.63
2022-10-16T18:17:43.619Z,97126.31
2022-10-16T18:20:10.802Z,97342.66
2022-10-16T18:22:37.655Z,97161.59
2022-10-16T18:25:05.530Z,97385.66
2022-10-16T18:27:32.806Z,97245.97
2022-10-16T18:30:00.181Z,97256.44
2022-10-16T18:32:27.225Z,97022.09
2022-10-16T18:34:54.613Z,97094.41
2022-10-16T18:37:21.742Z,97342.50
2022-10-16T18:39:51.147Z,97117.56
2022-10-16T18:42:17.894Z,97320.63
2022-10-16T18:44:46.840Z,97335.31
2022-10-16T18:47:15.650Z,97321.91
2022-10-16T18:49:44.356Z,97097.59
2022-10-16T18:52:10.932Z,97172.84
2022-10-16T18:54:37.624Z,97355.09
2022-10-16T18:57:04.530Z,97338.25
2022-10-16T18:59:42.378Z,97331.72
2022-10-16T19:02:09.593Z,97321.63
2022-10-16T19:04:36.163Z,97356.72
2022-10-16T19:07:02.816Z,97362.09
2022-10-16T19:09:29.470Z,97318.66
2022-10-16T19:11:57.378Z,97343.31
2022-10-16T19:14:25.168Z,97368.16
2022-10-16T19:16:51.745Z,97397.38
2022-10-16T19:19:18.590Z,97283.47
2022-10-16T19:21:45.388Z,97348.38
2022-10-16T19:24:15.377Z,97452.31
2022-10-16T19:26:42.449Z,97429.28
2022-10-16T19:29:09.876Z,97367.34
2022-10-16T19:31:36.609Z,97337.25
2022-10-16T19:34:04.228Z,97367.34
2022-10-16T19:36:32.381Z,97217.34
2022-10-16T19:39:06.819Z,97329.94
2022-10-16T19:41:33.821Z,97374.53
2022-10-16T19:44:04.254Z,97293.00
2022-10-16T19:46:31.151Z,97358.50
2022-10-16T19:48:59.079Z,97379.25
2022-10-16T19:51:26.306Z,97436.59
2022-10-16T19:53:57.468Z,97428.28
2022-10-16T19:56:24.846Z,97288.72
2022-10-16T19:58:51.780Z,97436.13
2022-10-16T20:01:18.616Z,97296.72
2022-10-16T20:03:45.968Z,97427.78
2022-10-16T20:06:12.718Z,97267.47
2022-10-16T20:08:39.946Z,97255.06
2022-10-16T20:11:06.960Z,97483.84
2022-10-16T20:13:36.209Z,97448.38
2022-10-16T20:16:05.269Z,97430.03
2022-10-16T20:18:31.927Z,97452.44
2022-10-16T20:20:58.486Z,97360.09
2022-10-16T20:23:25.279Z,97330.66
2022-10-16T20:25:52.907Z,97426.13
2022-10-16T20:28:22.610Z,97398.19
2022-10-16T20:30:49.891Z,97462.09
2022-10-16T20:33:16.709Z,97485.63
2022-10-16T20:35:48.570Z,97412.06
2022-10-16T20:38:15.783Z,97340.44
2022-10-16T20:40:44.653Z,97330.81
2022-10-16T20:43:15.547Z,97293.19
2022-10-16T20:45:42.244Z,97444.41
2022-10-16T20:48:08.895Z,97374.44
2022-10-16T20:50:35.595Z,97373.97
2022-10-16T20:53:02.295Z,97524.38
2022-10-16T20:55:28.973Z,97392.09
2022-10-16T20:57:56.122Z,97407.13
2022-10-16T21:00:23.041Z,97374.56
2022-10-16T21:02:50.399Z,97491.53
2022-10-16T21:05:17.090Z,97407.16
2022-10-16T21:07:43.792Z,97403.53
2022-10-16T21:10:10.544Z,97386.06
2022-10-16T21:12:37.206Z,97364.03
2022-10-16T21:15:19.191Z,97308.78
2022-10-16T21:17:45.848Z,97370.88
2022-10-16T21:20:12.514Z,97385.38
2022-10-16T21:22:39.169Z,97233.19
2022-10-16T21:25:06.413Z,97554.47
2022-10-16T21:27:38.106Z,97424.13
2022-10-16T21:30:06.714Z,97292.25
2022-10-16T21:32:35.981Z,97493.94
2022-10-16T21:35:02.638Z,97359.00
2022-10-16T21:37:29.271Z,97422.47
2022-10-16T21:39:56.333Z,97381.88
2022-10-16T21:42:23.015Z,97379.59
2022-10-16T21:44:49.652Z,97356.41
2022-10-16T21:47:16.242Z,97498.50
2022-10-16T21:49:42.923Z,97370.91
2022-10-16T21:52:09.577Z,97418.19
2022-10-16T21:54:36.321Z,97311.72
2022-10-16T21:59:30.846Z,97368.28
2022-10-16T22:01:57.467Z,97418.94
2022-10-16T22:04:24.164Z,97411.78
2022-10-16T22:06:50.795Z,97417.38
2022-10-16T22:09:17.427Z,97498.00
2022-10-16T22:11:44.468Z,97523.03
2022-10-16T22:14:13.180Z,97463.81
2022-10-16T22:16:39.921Z,97354.53
2022-10-16T22:19:09.326Z,97271.25
2022-10-16T22:25:16.691Z,97290.00
2022-10-16T22:27:43.320Z,97315.94
2022-10-16T22:30:10.409Z,97439.78
2022-10-16T22:32:37.083Z,97409.78
2022-10-16T22:35:03.809Z,97426.50
2022-10-16T22:37:30.604Z,97450.56
2022-10-16T22:39:58.992Z,97532.59
2022-10-16T22:42:27.606Z,97533.06
2022-10-16T22:44:54.209Z,97405.28
2022-10-16T22:47:20.847Z,97234.81
2022-10-16T22:49:47.822Z,97585.28
2022-10-16T22:52:14.436Z,97366.66
2022-10-16T22:54:41.065Z,97464.13
2022-10-16T22:57:07.640Z,97449.03
2022-10-16T22:59:34.293Z,97468.91
2022-10-16T23:02:00.922Z,97427.03
2022-10-16T23:04:27.500Z,97403.59
2022-10-16T23:06:54.451Z,97414.88
2022-10-16T23:09:22.268Z,97225.53
2022-10-16T23:11:48.890Z,97417.47
2022-10-16T23:14:20.222Z,97423.88
2022-10-16T23:16:46.925Z,97435.44
2022-10-16T23:19:13.532Z,97417.25
2022-10-16T23:21:40.145Z,97437.97
2022-10-16T23:24:06.877Z,97411.97
2022-10-16T23:26:33.793Z,97481.88
2022-10-16T23:29:00.669Z,97354.25
2022-10-16T23:31:27.593Z,97388.59
2022-10-16T23:33:55.861Z,97442.94
2022-10-16T23:36:22.668Z,97430.75
2022-10-16T23:38:49.671Z,97448.53
2022-10-16T23:41:16.448Z,97386.91
2022-10-16T23:43:43.120Z,97616.13
2022-10-16T23:46:13.418Z,97445.69
2022-10-16T23:48:40.126Z,97470.47
2022-10-16T23:51:09.835Z,97302.81
2022-10-16T23:53:36.507Z,97447.03
2022-10-16T23:56:03.163Z,97386.25
2022-10-16T23:58:29.805Z,97392.94
